TimeEST,TemperatureF,Dew PointF,Humidity,Sea Level PressureIn,VisibilityMPH,Wind Direction,Wind SpeedMPH,Gust SpeedMPH,PrecipitationIn,Events,Conditions,WindDirDegrees,DateUTC
12:53 AM,46.0,24.1,42,30.16,10.0,SSE,3.5,-,N/A,,Clear,160,2012-12-15 05:53:00
1:53 AM,45.0,25.0,46,30.16,10.0,Calm,Calm,-,N/A,,Clear,0,2012-12-15 06:53:00
2:53 AM,45.0,26.1,48,30.15,10.0,Calm,Calm,-,N/A,,Clear,0,2012-12-15 07:53:00
3:53 AM,44.1,26.1,49,30.16,10.0,Calm,Calm,-,N/A,,Clear,0,2012-12-15 08:53:00
4:53 AM,42.1,27.0,55,30.14,10.0,ENE,3.5,-,N/A,,Clear,60,2012-12-15 09:53:00
5:53 AM,39.9,27.0,60,30.13,10.0,SSE,4.6,-,N/A,,Clear,150,2012-12-15 10:53:00
6:53 AM,37.9,30.0,73,30.16,10.0,SSW,3.5,-,N/A,,Clear,200,2012-12-15 11:53:00
7:53 AM,42.1,28.0,58,30.17,10.0,Calm,Calm,-,N/A,,Clear,0,2012-12-15 12:53:00
8:53 AM,43.0,30.0,60,30.15,10.0,Calm,Calm,-,N/A,,Clear,0,2012-12-15 13:53:00
9:53 AM,45.0,30.0,56,30.13,10.0,SSE,4.6,-,N/A,,Clear,150,2012-12-15 14:53:00
10:53 AM,50.0,32.0,50,30.12,10.0,Calm,Calm,-,N/A,,Clear,0,2012-12-15 15:53:00
11:53 AM,54.0,30.9,41,30.07,10.0,Calm,Calm,-,N/A,,Scattered Clouds,0,2012-12-15 16:53:00
12:53 PM,55.0,32.0,42,30.02,10.0,Variable,3.5,-,N/A,,Overcast,0,2012-12-15 17:53:00
1:53 PM,59.0,30.9,35,30.00,10.0,Calm,Calm,-,N/A,,Overcast,0,2012-12-15 18:53:00
2:53 PM,60.1,30.9,33,29.97,10.0,Calm,Calm,-,N/A,,Mostly Cloudy,0,2012-12-15 19:53:00
3:53 PM,57.9,32.0,37,29.96,10.0,South,10.4,17.3,0.00,,Overcast,180,2012-12-15 20:53:00
4:53 PM,55.9,36.0,47,29.93,10.0,Variable,3.5,-,0.00,,Overcast,0,2012-12-15 21:53:00
5:53 PM,57.0,34.0,42,29.92,10.0,Variable,5.8,-,N/A,,Overcast,0,2012-12-15 22:53:00
6:53 PM,53.1,39.0,59,29.93,9.0,Variable,6.9,-,0.00,Rain,Light Rain,0,2012-12-15 23:53:00
7:53 PM,54.0,37.9,55,29.91,10.0,SSW,8.1,-,0.01,,Overcast,200,2012-12-16 00:53:00
8:53 PM,55.0,36.0,49,29.89,10.0,Variable,4.6,-,N/A,,Overcast,0,2012-12-16 01:53:00
9:53 PM,55.9,37.0,49,29.90,10.0,South,5.8,-,N/A,,Overcast,190,2012-12-16 02:53:00
10:53 PM,55.9,39.0,53,29.89,10.0,Variable,3.5,-,N/A,,Overcast,0,2012-12-16 03:53:00
11:12 PM,57.2,39.2,51,29.91,10.0,Variable,5.8,-,N/A,,Overcast,0,2012-12-16 04:12:00
11:53 PM,55.9,42.1,60,29.91,10.0,SSW,6.9,-,N/A,,Overcast,210,2012-12-16 04:53:00